createdAt,value
2024-03-02T00:01:00.873Z,9.60
2024-03-02T00:06:00.707Z,9.60
2024-03-02T00:11:00.976Z,9.61
2024-03-02T00:16:00.672Z,9.60
2024-03-02T00:21:00.499Z,9.66
2024-03-02T00:26:00.423Z,9.70
2024-03-02T00:31:00.496Z,9.75
2024-03-02T00:36:00.342Z,9.75
2024-03-02T00:41:00.236Z,9.76
2024-03-02T00:46:00.175Z,9.82
2024-03-02T00:51:00.139Z,9.82
2024-03-02T00:56:00.078Z,9.79
2024-03-02T01:01:00.024Z,9.81
2024-03-02T01:05:59.879Z,9.79
2024-03-02T01:10:59.888Z,9.75
2024-03-02T01:15:59.799Z,9.75
2024-03-02T01:20:59.677Z,9.71
2024-03-02T01:25:59.608Z,9.66
2024-03-02T01:30:59.667Z,9.71
2024-03-02T01:35:59.472Z,9.73
2024-03-02T01:40:59.405Z,9.78
2024-03-02T01:45:59.396Z,9.70
2024-03-02T01:50:59.276Z,9.73
2024-03-02T01:55:59.211Z,9.68
2024-03-02T02:00:59.243Z,9.71
2024-03-02T02:05:59.167Z,9.78
2024-03-02T02:10:59.103Z,9.68
2024-03-02T02:15:59.044Z,9.68
2024-03-02T02:20:58.931Z,9.64
2024-03-02T02:25:58.842Z,9.68
2024-03-02T02:30:58.869Z,9.75
2024-03-02T02:35:58.750Z,9.78
2024-03-02T02:40:58.606Z,9.68
2024-03-02T02:45:58.583Z,9.63
2024-03-02T02:50:58.471Z,9.63
2024-03-02T02:55:58.427Z,9.64
2024-03-02T03:00:58.429Z,9.70
2024-03-02T03:05:58.292Z,9.73
2024-03-02T03:10:58.343Z,9.67
2024-03-02T03:15:58.221Z,9.73
2024-03-02T03:20:58.104Z,9.71
2024-03-02T03:25:58.086Z,9.67
2024-03-02T03:30:57.950Z,9.68
2024-03-02T03:35:57.927Z,9.68
2024-03-02T03:40:57.791Z,9.68
2024-03-02T03:45:57.851Z,9.67
2024-03-02T03:50:57.651Z,9.67
2024-03-02T03:55:57.614Z,9.71
2024-03-02T04:00:57.592Z,9.64
2024-03-02T04:05:57.476Z,9.64
2024-03-02T04:10:57.434Z,9.71
2024-03-02T04:15:57.383Z,9.78
2024-03-02T04:20:57.334Z,9.78
2024-03-02T04:25:57.194Z,9.71
2024-03-02T04:30:57.217Z,9.66
2024-03-02T04:35:57.092Z,9.58
2024-03-02T04:40:57.096Z,9.70
2024-03-02T04:45:57.030Z,9.75
2024-03-02T04:50:56.847Z,9.86
2024-03-02T04:55:56.829Z,9.94
2024-03-02T05:00:56.794Z,9.97
2024-03-02T05:05:56.643Z,10.03
2024-03-02T05:10:56.573Z,10.03
2024-03-02T05:15:56.519Z,10.06
2024-03-02T05:20:56.512Z,10.04
2024-03-02T05:25:56.345Z,10.03
2024-03-02T05:30:56.405Z,10.06
2024-03-02T05:35:56.236Z,10.09
2024-03-02T05:40:56.241Z,10.04
2024-03-02T05:45:56.255Z,10.07
2024-03-02T05:50:56.004Z,10.12
2024-03-02T05:55:55.961Z,10.12
2024-03-02T06:00:56.110Z,10.12
2024-03-02T06:05:55.822Z,10.07
2024-03-02T06:10:55.853Z,10.04
2024-03-02T06:15:55.766Z,10.04
2024-03-02T06:20:55.750Z,10.06
2024-03-02T06:25:55.590Z,10.09
2024-03-02T06:30:55.550Z,10.15
2024-03-02T06:35:55.508Z,10.17
2024-03-02T06:40:55.333Z,10.14
2024-03-02T06:45:55.366Z,10.17
2024-03-02T06:50:55.253Z,10.21
2024-03-02T06:55:55.200Z,10.25
2024-03-02T07:00:55.109Z,10.26
2024-03-02T07:05:55.022Z,10.26
2024-03-02T07:10:55.001Z,10.33
2024-03-02T07:15:55.041Z,10.33
2024-03-02T07:20:54.826Z,10.37
2024-03-02T07:30:54.699Z,10.46
2024-03-02T07:35:54.679Z,10.51
2024-03-02T07:40:54.559Z,10.55
2024-03-02T07:45:54.589Z,10.56
2024-03-02T07:50:54.444Z,10.58
2024-03-02T07:55:54.416Z,10.60
2024-03-02T08:00:55.593Z,10.65
2024-03-02T08:05:54.442Z,10.65
2024-03-02T08:10:54.231Z,10.63
2024-03-02T08:15:54.176Z,10.63
2024-03-02T08:20:54.048Z,10.63
2024-03-02T08:25:54.009Z,10.66
2024-03-02T08:30:54.146Z,10.71
2024-03-02T08:35:53.845Z,10.76
2024-03-02T08:40:53.770Z,10.84
2024-03-02T08:45:53.846Z,10.91
2024-03-02T08:50:53.774Z,11.02
2024-03-02T08:55:53.545Z,11.14
2024-03-02T09:00:53.549Z,11.39
2024-03-02T09:05:53.448Z,11.71
2024-03-02T09:10:53.381Z,12.13
2024-03-02T09:15:53.730Z,12.39
2024-03-02T09:20:53.222Z,12.62
2024-03-02T09:25:53.193Z,12.79
2024-03-02T09:30:53.162Z,12.95
2024-03-02T09:35:55.096Z,13.00
2024-03-02T09:40:52.963Z,13.09
2024-03-02T09:45:52.986Z,13.09
2024-03-02T09:50:52.864Z,12.82
2024-03-02T09:55:52.882Z,12.62
2024-03-02T10:00:52.796Z,12.49
2024-03-02T10:05:52.733Z,12.39
2024-03-02T10:10:52.630Z,12.26
2024-03-02T10:15:55.009Z,12.24
2024-03-02T10:20:52.475Z,12.45
2024-03-02T10:25:57.985Z,12.71
2024-03-02T10:30:53.386Z,12.92
2024-03-02T10:35:52.275Z,13.22
2024-03-02T10:40:52.222Z,13.54
2024-03-02T10:45:52.160Z,13.61
2024-03-02T10:50:52.081Z,13.83
2024-03-02T10:55:52.046Z,13.96
2024-03-02T11:00:52.085Z,14.20
2024-03-02T11:05:51.894Z,14.57
2024-03-02T11:10:51.872Z,14.93
2024-03-02T11:15:51.820Z,14.98
2024-03-02T11:20:51.728Z,15.27
2024-03-02T11:25:51.609Z,15.42
2024-03-02T11:30:51.643Z,15.82
2024-03-02T11:35:51.910Z,15.46
2024-03-02T11:40:51.415Z,15.43
2024-03-02T11:45:51.371Z,15.41
2024-03-02T11:50:51.298Z,15.46
2024-03-02T11:55:51.183Z,15.45
2024-03-02T12:00:51.246Z,15.36
2024-03-02T12:05:51.085Z,15.20
2024-03-02T12:10:51.081Z,14.95
2024-03-02T12:15:51.110Z,14.53
2024-03-02T12:20:50.916Z,14.13
2024-03-02T12:25:50.917Z,13.94
2024-03-02T12:30:50.808Z,13.77
2024-03-02T12:35:50.764Z,13.55
2024-03-02T12:40:50.740Z,13.36
2024-03-02T12:45:50.574Z,13.36
2024-03-02T12:50:50.581Z,13.56
2024-03-02T12:55:50.509Z,14.02
2024-03-02T13:00:50.449Z,14.31
2024-03-02T13:05:50.276Z,14.44
2024-03-02T13:10:50.253Z,14.50
2024-03-02T13:15:50.265Z,14.24
2024-03-02T13:20:50.066Z,14.20
2024-03-02T13:25:50.030Z,14.09
2024-03-02T13:30:50.011Z,14.12
2024-03-02T13:35:49.907Z,13.87
2024-03-02T13:40:49.856Z,13.65
2024-03-02T13:45:49.804Z,13.62
2024-03-02T13:50:49.781Z,13.52
2024-03-02T13:55:49.654Z,13.52
2024-03-02T14:00:49.631Z,13.62
2024-03-02T14:05:49.492Z,13.52
2024-03-02T14:10:49.551Z,13.44
2024-03-02T14:15:49.423Z,13.27
2024-03-02T14:20:49.267Z,13.22
2024-03-02T14:25:49.227Z,13.25
2024-03-02T14:30:49.262Z,13.17
2024-03-02T14:35:49.103Z,13.09
2024-03-02T14:40:49.728Z,13.00
2024-03-02T14:45:49.010Z,12.93
2024-03-02T14:50:48.939Z,12.92
2024-03-02T14:55:48.849Z,12.87
2024-03-02T15:00:48.886Z,12.82
2024-03-02T15:05:48.761Z,12.78
2024-03-02T15:10:48.667Z,12.64
2024-03-02T15:15:48.617Z,12.54
2024-03-02T15:20:48.534Z,12.46
2024-03-02T15:25:51.573Z,12.41
2024-03-02T15:30:48.914Z,12.42
2024-03-02T15:35:50.004Z,12.37
2024-03-02T15:40:49.589Z,12.29
2024-03-02T15:45:53.022Z,12.27
2024-03-02T15:50:51.212Z,12.24
2024-03-02T15:55:48.123Z,12.15
2024-03-02T16:00:48.050Z,12.04
2024-03-02T16:05:47.893Z,11.99
2024-03-02T16:10:47.824Z,11.94
2024-03-02T16:15:47.836Z,11.94
2024-03-02T16:20:47.707Z,11.94
2024-03-02T16:25:47.622Z,11.94
2024-03-02T16:30:47.602Z,11.96
2024-03-02T16:35:47.505Z,11.93
2024-03-02T16:40:47.470Z,11.90
2024-03-02T16:45:47.380Z,11.87
2024-03-02T16:50:47.396Z,11.87
2024-03-02T16:55:47.226Z,11.86
2024-03-02T17:00:47.202Z,11.78
2024-03-02T17:05:47.115Z,11.70
2024-03-02T17:10:47.080Z,11.61
2024-03-02T17:15:47.018Z,11.54
2024-03-02T17:20:46.912Z,11.54
2024-03-02T17:25:46.833Z,11.49
2024-03-02T17:30:46.924Z,11.46
2024-03-02T17:35:46.716Z,11.38
2024-03-02T17:40:46.674Z,11.31
2024-03-02T17:45:46.641Z,11.14
2024-03-02T17:50:46.542Z,10.99
2024-03-02T17:55:46.457Z,10.81
2024-03-02T18:00:46.412Z,10.63
2024-03-02T18:05:46.356Z,10.51
2024-03-02T18:10:46.295Z,10.28
2024-03-02T18:15:47.251Z,10.19
2024-03-02T18:20:46.118Z,10.14
2024-03-02T18:25:46.098Z,10.12
2024-03-02T18:30:46.070Z,10.14
2024-03-02T18:35:45.914Z,10.07
2024-03-02T18:40:45.838Z,10.04
2024-03-02T18:45:45.893Z,9.96
2024-03-02T18:50:45.844Z,9.76
2024-03-02T18:55:45.701Z,9.50
2024-03-02T19:00:45.652Z,9.43
2024-03-02T19:05:45.547Z,9.24
2024-03-02T19:10:45.564Z,9.15
2024-03-02T19:15:45.451Z,9.24
2024-03-02T19:20:45.339Z,9.40
2024-03-02T19:25:45.315Z,9.48
2024-03-02T19:30:46.737Z,9.50
2024-03-02T19:35:45.140Z,9.50
2024-03-02T19:40:45.086Z,9.39
2024-03-02T19:45:45.098Z,9.42
2024-03-02T19:50:44.947Z,9.40
2024-03-02T19:55:44.882Z,9.43
2024-03-02T20:00:44.885Z,9.21
2024-03-02T20:05:44.808Z,9.25
2024-03-02T20:10:46.949Z,9.25
2024-03-02T20:15:44.650Z,9.24
2024-03-02T20:20:44.624Z,9.15
2024-03-02T20:25:44.556Z,9.28
2024-03-02T20:30:44.486Z,9.24
2024-03-02T20:35:44.364Z,9.20
2024-03-02T20:40:44.322Z,8.99
2024-03-02T20:45:44.274Z,8.97
2024-03-02T20:50:46.087Z,8.83
2024-03-02T20:55:44.116Z,8.75
2024-03-02T21:00:44.102Z,8.65
2024-03-02T21:05:44.044Z,8.58
2024-03-02T21:10:46.210Z,8.54
2024-03-02T21:15:43.896Z,8.58
2024-03-02T21:20:43.844Z,8.66
2024-03-02T21:25:43.712Z,8.57
2024-03-02T21:30:43.690Z,8.57
2024-03-02T21:35:43.619Z,8.55
2024-03-02T21:40:43.630Z,8.53
2024-03-02T21:45:43.527Z,8.57
2024-03-02T21:50:43.426Z,8.90
2024-03-02T21:55:43.353Z,9.16
2024-03-02T22:00:43.341Z,9.20
2024-03-02T22:05:43.222Z,9.24
2024-03-02T22:10:43.196Z,9.43
2024-03-02T22:15:43.155Z,9.42
2024-03-02T22:20:43.063Z,9.43
2024-03-02T22:25:42.963Z,9.42
2024-03-02T22:30:42.905Z,9.39
2024-03-02T22:35:42.877Z,9.43
2024-03-02T22:40:42.811Z,9.66
2024-03-02T22:45:42.715Z,9.73
2024-03-02T22:50:42.634Z,9.75
2024-03-02T22:55:42.617Z,9.85
2024-03-02T23:00:42.562Z,9.86
2024-03-02T23:05:42.460Z,9.89
2024-03-02T23:10:42.382Z,10.00
2024-03-02T23:15:42.433Z,9.91
2024-03-02T23:20:42.245Z,9.93
2024-03-02T23:25:42.172Z,9.93
2024-03-02T23:30:42.190Z,9.93
2024-03-02T23:35:42.061Z,9.91
2024-03-02T23:40:41.978Z,9.88
2024-03-02T23:45:41.956Z,9.85
2024-03-02T23:50:41.877Z,9.86
2024-03-02T23:55:47.788Z,9.83
